createdAt,value
2018-06-19T00:01:25.188Z,97.70
2018-06-19T00:03:54.197Z,97.70
2018-06-19T00:06:23.205Z,97.80
2018-06-19T00:08:52.145Z,97.90
2018-06-19T00:11:21.184Z,97.90
2018-06-19T00:16:18.978Z,98.00
2018-06-19T00:21:22.088Z,98.30
2018-06-19T00:23:51.037Z,98.30
2018-06-19T00:26:19.999Z,98.30
2018-06-19T00:28:49.994Z,98.40
2018-06-19T00:31:18.986Z,98.60
2018-06-19T00:33:47.952Z,98.80
2018-06-19T00:36:16.946Z,98.80
2018-06-19T00:38:45.965Z,98.70
2018-06-19T00:41:15.015Z,98.80
2018-06-19T00:43:44.254Z,98.90
2018-06-19T00:48:42.342Z,98.90
2018-06-19T00:51:11.406Z,99.10
2018-06-19T00:53:40.366Z,99.10
2018-06-19T00:56:21.013Z,99.00
2018-06-19T00:58:49.972Z,98.80
2018-06-19T01:01:18.914Z,98.70
2018-06-19T01:03:47.947Z,98.60
2018-06-19T01:06:16.914Z,98.50
2018-06-19T01:08:45.930Z,98.30
2018-06-19T01:11:14.930Z,98.10
2018-06-19T01:13:44.050Z,97.90
2018-06-19T01:16:13.318Z,97.80
2018-06-19T01:18:42.421Z,97.60
2018-06-19T01:21:11.502Z,97.50
2018-06-19T01:23:40.585Z,97.20
2018-06-19T01:26:09.559Z,97.10
2018-06-19T01:28:38.558Z,96.90
2018-06-19T01:31:07.561Z,96.80
2018-06-19T01:33:36.504Z,96.70
2018-06-19T01:36:05.547Z,96.80
2018-06-19T01:41:03.559Z,96.30
2018-06-19T01:43:32.498Z,96.30
2018-06-19T01:46:01.515Z,96.20
2018-06-19T01:48:30.457Z,96.00
2018-06-19T01:50:59.478Z,96.20
2018-06-19T01:53:28.485Z,95.90
2018-06-19T01:55:57.617Z,95.60
2018-06-19T01:58:26.894Z,95.60
2018-06-19T02:03:24.477Z,95.50
2018-06-19T02:05:53.508Z,95.50
2018-06-19T02:08:22.460Z,95.60
2018-06-19T02:10:51.534Z,95.50
2018-06-19T02:13:20.467Z,95.50
2018-06-19T02:15:49.481Z,95.50
2018-06-19T02:18:18.472Z,95.50
2018-06-19T02:20:47.573Z,95.60
2018-06-19T02:23:16.573Z,95.50
2018-06-19T02:25:45.705Z,95.60
2018-06-19T02:28:14.861Z,95.50
2018-06-19T02:30:43.824Z,95.50
2018-06-19T02:33:12.962Z,95.60
2018-06-19T02:35:41.966Z,95.70
2018-06-19T02:38:10.939Z,95.70
2018-06-19T02:40:39.929Z,95.70
2018-06-19T02:43:08.913Z,95.80
2018-06-19T02:45:37.864Z,95.90
2018-06-19T02:48:06.884Z,95.90
2018-06-19T02:50:35.825Z,95.80
2018-06-19T02:53:04.813Z,95.90
2018-06-19T02:55:33.877Z,96.00
2018-06-19T02:58:02.914Z,96.10
2018-06-19T03:00:32.089Z,96.30
2018-06-19T03:03:01.006Z,96.40
2018-06-19T03:05:30.297Z,96.50
2018-06-19T03:07:59.331Z,96.30
2018-06-19T03:10:28.602Z,96.30
2018-06-19T03:12:57.805Z,96.30
2018-06-19T03:15:26.786Z,96.50
2018-06-19T03:17:55.844Z,96.90
2018-06-19T03:25:22.454Z,96.60
2018-06-19T03:27:51.465Z,96.70
2018-06-19T03:30:20.495Z,96.60
2018-06-19T03:32:49.446Z,96.70
2018-06-19T03:35:18.384Z,96.50
2018-06-19T03:37:47.417Z,96.70
2018-06-19T03:40:16.352Z,96.90
2018-06-19T03:42:45.441Z,96.80
2018-06-19T03:45:14.405Z,97.00
2018-06-19T03:47:43.661Z,97.10
2018-06-19T03:50:12.698Z,97.20
2018-06-19T03:52:41.865Z,97.20
2018-06-19T03:55:10.830Z,97.20
2018-06-19T03:57:39.873Z,97.30
2018-06-19T04:00:08.805Z,97.30
2018-06-19T04:02:38.876Z,97.30
2018-06-19T04:05:07.915Z,97.30
2018-06-19T04:07:37.028Z,97.50
2018-06-19T04:10:05.947Z,97.60
2018-06-19T04:12:35.022Z,97.50
2018-06-19T04:15:04.023Z,97.50
2018-06-19T04:17:33.107Z,97.50
2018-06-19T04:20:02.070Z,97.60
2018-06-19T04:22:30.983Z,97.60
2018-06-19T04:24:59.941Z,97.70
2018-06-19T04:27:29.257Z,97.80
2018-06-19T04:29:58.458Z,97.90
2018-06-19T04:32:27.725Z,97.70
2018-06-19T04:34:56.693Z,97.70
2018-06-19T04:37:25.634Z,97.80
2018-06-19T04:39:54.579Z,97.80
2018-06-19T04:42:23.655Z,97.90
2018-06-19T04:44:53.348Z,98.00
2018-06-19T04:47:22.927Z,97.90
2018-06-19T04:49:51.858Z,97.70
2018-06-19T04:52:20.823Z,97.90
2018-06-19T04:54:49.794Z,97.90
2018-06-19T04:57:18.829Z,98.10
2018-06-19T04:59:47.777Z,98.20
2018-06-19T05:02:16.736Z,98.10
2018-06-19T05:04:45.679Z,98.00
2018-06-19T05:07:14.666Z,98.10
2018-06-19T05:09:43.674Z,98.10
2018-06-19T05:12:12.706Z,98.10
2018-06-19T05:14:41.694Z,98.20
2018-06-19T05:17:10.649Z,98.20
2018-06-19T05:19:39.600Z,98.30
2018-06-19T05:22:08.566Z,98.20
2018-06-19T05:24:37.528Z,98.30
2018-06-19T05:27:06.532Z,98.00
2018-06-19T05:29:35.484Z,97.90
2018-06-19T05:32:04.550Z,97.90
2018-06-19T05:34:33.653Z,97.80
2018-06-19T05:37:02.760Z,97.70
2018-06-19T05:39:31.861Z,97.80
2018-06-19T05:42:01.242Z,98.20
2018-06-19T05:44:30.378Z,97.90
2018-06-19T05:46:59.546Z,97.80
2018-06-19T05:49:28.532Z,97.70
2018-06-19T05:51:57.462Z,97.40
2018-06-19T05:54:26.484Z,97.80
2018-06-19T05:56:55.473Z,97.70
2018-06-19T05:59:24.397Z,97.60
2018-06-19T06:01:53.583Z,97.70
2018-06-19T06:04:22.654Z,97.30
2018-06-19T06:09:20.455Z,97.80
2018-06-19T06:11:49.670Z,97.60
2018-06-19T06:14:18.726Z,97.90
2018-06-19T06:16:47.822Z,97.80
2018-06-19T06:21:46.119Z,97.90
2018-06-19T06:24:15.210Z,98.00
2018-06-19T06:26:44.321Z,98.00
2018-06-19T06:29:13.621Z,97.90
2018-06-19T06:31:42.654Z,98.10
2018-06-19T06:34:11.696Z,97.90
2018-06-19T06:36:40.627Z,98.00
2018-06-19T06:39:09.837Z,98.00
2018-06-19T06:41:38.794Z,98.10
2018-06-19T06:44:07.828Z,97.90
2018-06-19T06:46:36.796Z,97.80
2018-06-19T06:49:05.815Z,97.90
2018-06-19T06:51:34.843Z,97.80
2018-06-19T06:54:03.784Z,97.90
2018-06-19T06:56:32.766Z,97.90
2018-06-19T06:59:01.782Z,97.80
2018-06-19T07:01:30.752Z,97.90
2018-06-19T07:03:59.718Z,97.70
2018-06-19T07:06:28.900Z,97.80
2018-06-19T07:11:26.523Z,97.80
2018-06-19T07:13:56.356Z,97.90
2018-06-19T07:16:25.422Z,97.90
2018-06-19T07:18:54.547Z,97.80
2018-06-19T07:21:23.623Z,97.90
2018-06-19T07:23:52.679Z,97.80
2018-06-19T07:26:21.722Z,97.80
2018-06-19T07:28:50.754Z,98.00
2018-06-19T07:31:19.777Z,97.90
2018-06-19T07:33:48.800Z,97.60
2018-06-19T07:36:17.747Z,97.40
2018-06-19T07:38:46.730Z,97.50
2018-06-19T07:41:15.724Z,97.70
2018-06-19T07:43:44.866Z,97.50
2018-06-19T07:46:13.921Z,97.60
2018-06-19T07:48:43.166Z,97.20
2018-06-19T07:51:12.154Z,97.30
2018-06-19T07:53:41.125Z,96.80
2018-06-19T07:56:10.068Z,96.80
2018-06-19T07:58:39.313Z,96.70
2018-06-19T08:01:08.351Z,96.80
2018-06-19T08:03:37.358Z,96.80
2018-06-19T08:06:07.357Z,96.80
2018-06-19T08:08:36.420Z,96.80
2018-06-19T08:11:05.358Z,96.90
2018-06-19T08:13:34.478Z,96.90
2018-06-19T08:16:03.616Z,96.70
2018-06-19T08:18:32.694Z,96.60
2018-06-19T08:21:01.663Z,96.60
2018-06-19T08:23:30.597Z,96.70
2018-06-19T08:28:28.861Z,96.50
2018-06-19T08:30:57.869Z,96.40
2018-06-19T08:33:26.819Z,96.50
2018-06-19T08:35:56.420Z,96.60
2018-06-19T08:38:25.482Z,96.00
2018-06-19T08:40:54.540Z,96.00
2018-06-19T08:43:23.614Z,95.90
2018-06-19T08:45:52.603Z,95.70
2018-06-19T08:48:21.626Z,95.90
2018-06-19T08:50:50.703Z,95.90
2018-06-19T08:53:19.699Z,95.70
2018-06-19T08:55:48.730Z,95.70
2018-06-19T08:58:17.966Z,95.60
2018-06-19T09:00:47.137Z,95.50
2018-06-19T09:03:16.342Z,95.60
2018-06-19T09:05:45.374Z,95.60
2018-06-19T09:08:14.479Z,95.30
2018-06-19T09:10:43.480Z,95.40
2018-06-19T09:13:12.442Z,95.10
2018-06-19T09:15:41.464Z,94.80
2018-06-19T09:18:10.503Z,94.70
2018-06-19T09:20:39.539Z,94.40
2018-06-19T09:23:08.509Z,94.20
2018-06-19T09:25:37.454Z,93.90
2018-06-19T09:28:06.631Z,93.70
2018-06-19T09:33:04.309Z,92.40
2018-06-19T09:35:33.310Z,92.30
2018-06-19T09:38:02.341Z,91.70
2018-06-19T09:40:31.421Z,91.50
2018-06-19T09:43:00.490Z,91.30
2018-06-19T09:45:29.573Z,91.00
2018-06-19T09:47:58.629Z,90.80
2018-06-19T09:50:27.592Z,90.70
2018-06-19T09:52:56.861Z,90.10
2018-06-19T09:55:26.026Z,90.30
2018-06-19T09:57:55.004Z,90.20
2018-06-19T10:00:29.347Z,90.30
2018-06-19T10:05:27.497Z,89.20
2018-06-19T10:07:56.464Z,88.80
2018-06-19T10:10:25.931Z,88.70
2018-06-19T10:12:55.281Z,89.00
2018-06-19T10:15:24.274Z,89.40
2018-06-19T10:17:53.378Z,89.40
2018-06-19T10:20:22.346Z,90.00
2018-06-19T10:25:51.003Z,90.00
2018-06-19T10:28:20.071Z,90.50
2018-06-19T10:30:49.322Z,90.60
2018-06-19T10:33:18.262Z,90.20
2018-06-19T10:35:47.490Z,90.60
2018-06-19T10:38:16.517Z,90.90
2018-06-19T10:40:45.497Z,90.90
2018-06-19T10:43:14.522Z,91.00
2018-06-19T10:45:43.514Z,91.30
2018-06-19T10:48:12.530Z,91.40
2018-06-19T10:50:41.611Z,91.30
2018-06-19T10:53:10.611Z,91.00
2018-06-19T10:55:39.562Z,91.40
2018-06-19T10:58:08.685Z,91.30
2018-06-19T11:00:37.706Z,90.60
2018-06-19T11:03:06.663Z,91.00
2018-06-19T11:05:35.739Z,90.30
2018-06-19T11:08:04.752Z,90.20
2018-06-19T11:10:33.763Z,89.50
2018-06-19T11:13:02.737Z,89.50
2018-06-19T11:15:31.732Z,90.10
2018-06-19T11:18:00.718Z,89.20
2018-06-19T11:20:29.678Z,89.60
2018-06-19T11:22:58.634Z,86.30
2018-06-19T11:25:27.720Z,86.30
2018-06-19T11:30:25.505Z,83.80
2018-06-19T11:35:23.075Z,85.40
2018-06-19T11:37:52.049Z,86.20
2018-06-19T11:40:21.034Z,84.20
2018-06-19T11:42:50.025Z,83.00
2018-06-19T11:45:18.998Z,82.60
2018-06-19T11:47:47.935Z,84.90
2018-06-19T11:52:45.722Z,84.30
2018-06-19T11:55:14.837Z,84.30
2018-06-19T11:57:43.875Z,82.90
2018-06-19T12:00:12.819Z,82.50
2018-06-19T12:02:41.773Z,81.90
2018-06-19T12:07:41.978Z,80.20
2018-06-19T12:10:11.298Z,81.60
2018-06-19T12:12:40.878Z,81.60
2018-06-19T12:15:09.948Z,80.60
2018-06-19T12:17:39.004Z,79.40
2018-06-19T12:20:08.797Z,77.10
2018-06-19T12:22:37.936Z,74.90
2018-06-19T12:25:07.046Z,72.80
2018-06-19T12:27:36.092Z,76.60
2018-06-19T12:30:05.423Z,74.80
2018-06-19T12:32:34.637Z,75.30
2018-06-19T12:35:04.022Z,76.50
2018-06-19T12:37:33.312Z,76.90
2018-06-19T12:40:02.505Z,75.80
2018-06-19T12:42:31.803Z,77.70
2018-06-19T12:45:01.254Z,78.70
2018-06-19T12:47:30.349Z,78.30
2018-06-19T12:50:38.576Z,79.70
2018-06-19T12:53:19.847Z,78.70
2018-06-19T12:56:01.875Z,78.30
2018-06-19T12:58:31.970Z,79.10
2018-06-19T13:01:01.689Z,79.70
2018-06-19T13:03:42.374Z,78.90
2018-06-19T13:08:46.960Z,79.10
2018-06-19T13:11:15.971Z,79.10
2018-06-19T13:13:56.327Z,78.80
2018-06-19T13:16:36.740Z,80.20
2018-06-19T13:19:17.579Z,80.00
2018-06-19T13:21:46.539Z,81.20
2018-06-19T13:24:15.525Z,81.00
2018-06-19T13:26:44.525Z,81.60
2018-06-19T13:29:52.430Z,81.00
2018-06-19T13:32:21.636Z,82.10
2018-06-19T13:34:50.582Z,82.30
2018-06-19T13:37:19.572Z,83.50
2018-06-19T13:41:05.185Z,83.40
2018-06-19T13:43:45.991Z,83.30
2018-06-19T13:46:15.038Z,83.00
2018-06-19T13:48:44.380Z,83.70
2018-06-19T13:51:13.775Z,82.90
2018-06-19T13:53:44.029Z,81.60
2018-06-19T13:57:31.980Z,80.90
2018-06-19T14:00:02.542Z,80.70
2018-06-19T14:02:31.550Z,81.80
2018-06-19T14:05:01.075Z,81.50
2018-06-19T14:07:32.361Z,81.70
2018-06-19T14:10:21.482Z,81.60
2018-06-19T14:12:52.126Z,82.30
2018-06-19T14:15:22.218Z,82.20
2018-06-19T14:17:51.345Z,83.70
2018-06-19T14:20:20.554Z,84.20
2018-06-19T14:22:49.647Z,84.30
2018-06-19T14:25:19.441Z,85.40
2018-06-19T14:28:12.100Z,84.90
2018-06-19T14:30:41.128Z,83.40
2018-06-19T14:33:10.156Z,83.00
2018-06-19T14:35:39.269Z,82.70
2018-06-19T14:40:37.227Z,83.40
2018-06-19T14:43:06.320Z,82.90
2018-06-19T14:45:36.373Z,82.70
2018-06-19T14:48:05.413Z,83.00
2018-06-19T14:50:34.404Z,82.40
2018-06-19T14:53:03.365Z,81.50
2018-06-19T14:55:32.407Z,82.00
2018-06-19T14:58:01.500Z,82.20
2018-06-19T15:00:30.604Z,83.40
2018-06-19T15:02:59.576Z,80.70
2018-06-19T15:05:28.544Z,81.90
2018-06-19T15:07:57.689Z,81.50
2018-06-19T15:10:26.782Z,82.20
2018-06-19T15:12:55.726Z,83.60
2018-06-19T15:15:24.705Z,81.90
2018-06-19T15:17:53.702Z,81.90
2018-06-19T15:20:22.729Z,81.70
2018-06-19T15:22:51.834Z,81.80
2018-06-19T15:27:49.646Z,81.80
2018-06-19T15:30:18.724Z,82.50
2018-06-19T15:32:47.750Z,82.30
2018-06-19T15:35:16.850Z,82.20
2018-06-19T15:37:45.932Z,81.50
2018-06-19T15:40:14.871Z,81.40
2018-06-19T15:42:44.887Z,80.80
2018-06-19T15:45:13.833Z,79.90
2018-06-19T15:47:42.893Z,79.40
2018-06-19T15:50:12.010Z,80.50
2018-06-19T15:52:41.023Z,80.50
2018-06-19T15:55:10.006Z,81.30
2018-06-19T15:57:39.241Z,81.70
2018-06-19T16:02:36.889Z,82.20
2018-06-19T16:05:05.896Z,83.00
2018-06-19T16:07:40.187Z,82.80
2018-06-19T16:10:09.203Z,82.50
2018-06-19T16:12:38.200Z,80.80
2018-06-19T16:15:07.251Z,80.60
2018-06-19T16:17:36.255Z,79.90
2018-06-19T16:20:05.533Z,80.90
2018-06-19T16:22:34.562Z,80.80
2018-06-19T16:25:03.555Z,80.00
2018-06-19T16:27:32.593Z,79.90
2018-06-19T16:30:01.487Z,79.70
2018-06-19T16:32:30.611Z,80.00
2018-06-19T16:34:59.596Z,80.00
2018-06-19T16:37:28.543Z,80.90
2018-06-19T16:39:57.587Z,81.50
2018-06-19T16:42:26.545Z,83.00
2018-06-19T16:44:55.527Z,82.60
2018-06-19T16:47:24.530Z,82.10
2018-06-19T16:49:53.593Z,83.10
2018-06-19T16:52:22.555Z,83.00
2018-06-19T16:54:51.554Z,83.90
2018-06-19T16:57:20.573Z,83.40
2018-06-19T17:02:18.222Z,83.80
2018-06-19T17:04:47.841Z,83.60
2018-06-19T17:07:16.827Z,83.70
2018-06-19T17:09:45.815Z,82.20
2018-06-19T17:12:14.773Z,83.10
2018-06-19T17:14:44.790Z,82.00
2018-06-19T17:17:13.741Z,82.00
2018-06-19T17:19:42.785Z,82.80
2018-06-19T17:22:12.025Z,83.80
2018-06-19T17:24:41.102Z,83.80
2018-06-19T17:27:10.097Z,84.60
2018-06-19T17:29:39.198Z,84.60
2018-06-19T17:34:37.687Z,85.90
2018-06-19T17:39:35.525Z,87.20
2018-06-19T17:42:04.502Z,87.30
2018-06-19T17:44:33.502Z,87.20
2018-06-19T17:47:02.598Z,87.00
2018-06-19T17:49:31.615Z,87.10
2018-06-19T17:52:00.552Z,87.70
2018-06-19T17:54:29.627Z,87.40
2018-06-19T17:56:58.559Z,87.30
2018-06-19T17:59:27.582Z,87.10
2018-06-19T18:01:56.565Z,87.40
2018-06-19T18:04:25.667Z,87.60
2018-06-19T18:06:54.660Z,87.90
2018-06-19T18:09:23.638Z,88.10
2018-06-19T18:11:52.626Z,88.30
2018-06-19T18:14:21.615Z,88.80
2018-06-19T18:16:50.684Z,89.10
2018-06-19T18:19:19.834Z,88.60
2018-06-19T18:21:49.201Z,88.90
2018-06-19T18:24:18.215Z,89.40
2018-06-19T18:26:47.288Z,89.60
2018-06-19T18:29:16.556Z,89.90
2018-06-19T18:31:45.595Z,89.70
2018-06-19T18:34:14.692Z,89.40
2018-06-19T18:36:44.454Z,89.60
2018-06-19T18:39:13.531Z,89.30
2018-06-19T18:41:42.641Z,89.80
2018-06-19T18:44:11.837Z,89.20
2018-06-19T18:46:40.945Z,89.10
2018-06-19T18:49:09.910Z,89.50
2018-06-19T18:51:38.997Z,89.80
2018-06-19T18:56:36.667Z,90.30
2018-06-19T19:01:34.582Z,90.90
2018-06-19T19:04:03.604Z,90.60
2018-06-19T19:06:32.678Z,90.70
2018-06-19T19:09:02.021Z,90.90
2018-06-19T19:14:22.361Z,90.90
2018-06-19T19:16:56.575Z,91.20
2018-06-19T19:19:25.797Z,91.50
2018-06-19T19:21:55.040Z,91.60
2018-06-19T19:24:23.961Z,91.70
2018-06-19T19:26:58.449Z,91.60
2018-06-19T19:29:32.811Z,91.70
2018-06-19T19:32:01.802Z,91.70
2018-06-19T19:34:30.752Z,91.80
2018-06-19T19:38:06.285Z,91.20
2018-06-19T19:40:35.584Z,91.60
2018-06-19T19:43:04.809Z,91.50
2018-06-19T19:45:33.857Z,91.50
2018-06-19T19:48:08.214Z,91.90
2018-06-19T19:50:37.388Z,91.50
2018-06-19T19:53:06.714Z,91.60
2018-06-19T19:55:39.894Z,91.80
2018-06-19T19:58:14.485Z,91.80
2018-06-19T20:00:43.661Z,91.90
2018-06-19T20:03:12.679Z,91.90
2018-06-19T20:05:41.662Z,91.80
2018-06-19T20:08:10.721Z,91.80
2018-06-19T20:10:39.841Z,92.20
2018-06-19T20:13:08.789Z,92.20
2018-06-19T20:15:37.806Z,92.70
2018-06-19T20:18:06.875Z,92.50
2018-06-19T20:20:35.840Z,92.50
2018-06-19T20:23:04.973Z,92.50
2018-06-19T20:25:33.917Z,92.60
2018-06-19T20:28:02.908Z,92.70
2018-06-19T20:30:31.899Z,94.10
2018-06-19T20:33:00.880Z,94.00
2018-06-19T20:35:30.015Z,94.20
2018-06-19T20:37:58.969Z,94.50
2018-06-19T20:40:27.963Z,94.60
2018-06-19T20:42:57.022Z,94.50
2018-06-19T20:45:25.986Z,94.70
2018-06-19T20:47:55.025Z,94.70
2018-06-19T20:50:24.176Z,94.70
2018-06-19T20:52:53.266Z,94.80
2018-06-19T20:55:22.398Z,95.00
2018-06-19T20:57:51.385Z,95.10
2018-06-19T21:00:20.348Z,95.30
2018-06-19T21:02:49.401Z,95.40
2018-06-19T21:05:18.524Z,95.50
2018-06-19T21:07:48.465Z,95.70
2018-06-19T21:10:17.462Z,95.70
2018-06-19T21:12:46.516Z,95.60
2018-06-19T21:15:15.622Z,95.40
2018-06-19T21:20:13.207Z,95.50
2018-06-19T21:22:42.293Z,95.50
2018-06-19T21:25:11.258Z,95.60
2018-06-19T21:27:40.251Z,95.70
2018-06-19T21:30:09.286Z,95.90
2018-06-19T21:32:38.276Z,95.80
2018-06-19T21:35:07.382Z,95.80
2018-06-19T21:37:36.443Z,95.90
2018-06-19T21:40:05.533Z,95.80
2018-06-19T21:45:03.195Z,96.00
2018-06-19T21:47:32.280Z,96.10
2018-06-19T21:52:29.989Z,96.00
2018-06-19T21:54:58.966Z,96.60
2018-06-19T21:57:27.946Z,96.40
2018-06-19T21:59:56.910Z,96.40
2018-06-19T22:02:32.555Z,96.50
2018-06-19T22:05:03.258Z,96.50
2018-06-19T22:07:32.785Z,96.60
2018-06-19T22:10:01.850Z,96.70
2018-06-19T22:12:30.862Z,96.60
2018-06-19T22:14:59.859Z,96.60
2018-06-19T22:17:28.855Z,96.70
2018-06-19T22:19:57.847Z,97.00
2018-06-19T22:22:26.875Z,97.30
2018-06-19T22:24:55.921Z,97.10
2018-06-19T22:27:24.896Z,97.10
2018-06-19T22:29:53.876Z,97.00
2018-06-19T22:32:22.923Z,97.10
2018-06-19T22:34:51.905Z,97.10
2018-06-19T22:37:20.874Z,97.00
2018-06-19T22:39:49.885Z,97.10
2018-06-19T22:42:18.869Z,97.10
2018-06-19T22:44:47.968Z,97.30
2018-06-19T22:47:16.929Z,97.30
2018-06-19T22:49:45.852Z,97.30
2018-06-19T22:52:15.232Z,97.30
2018-06-19T22:54:44.194Z,97.50
2018-06-19T22:57:13.334Z,97.60
2018-06-19T22:59:42.278Z,97.60
2018-06-19T23:02:11.346Z,97.80
2018-06-19T23:04:40.842Z,98.00
2018-06-19T23:07:09.844Z,98.10
2018-06-19T23:09:38.786Z,98.10
2018-06-19T23:12:07.798Z,98.10
2018-06-19T23:14:36.910Z,97.90
2018-06-19T23:17:05.883Z,97.80
2018-06-19T23:19:34.915Z,98.10
2018-06-19T23:24:32.482Z,98.40
2018-06-19T23:27:01.457Z,98.50
2018-06-19T23:29:30.427Z,98.60
2018-06-19T23:31:59.377Z,98.50
2018-06-19T23:34:28.451Z,98.50
2018-06-19T23:36:57.463Z,98.50
2018-06-19T23:39:26.615Z,98.50
2018-06-19T23:41:55.589Z,98.70
2018-06-19T23:44:24.586Z,98.90
2018-06-19T23:46:53.575Z,98.70
2018-06-19T23:49:22.664Z,98.90
2018-06-19T23:51:51.722Z,98.90
2018-06-19T23:54:20.666Z,98.90
2018-06-19T23:56:49.809Z,98.80
2018-06-19T23:59:18.806Z,98.80
